Kuurne, Belgium

12:16 PM CET on December 03, 2016 (GMT +0100)
Anne Frankstraat | | Change Station

Elev 98 ft 50.82 °N, 3.25 °E | Updated 29 seconds ago

Clear
Clear
37.2 °F
Feels Like 37 °F
N
0.6
Wind Variable Wind from East
Gusts 3.7 mph

Today
High -- | Low -- °F
--% Chance of Precip.
Yesterday
High -- | Low -- °F
Precip. -- in
Pressure 30.30 in
Visibility 3.1 miles
Clouds
Windchill 37 °F
Dew Point 36 °F
Humidity 96%
Rainfall 0.00 in
Snow Depth Not available.
8:30 AM 4:43 PM
Waxing Crescent, 14% visible
METAR EBCV 031055Z AUTO 06007KT 5000 NCD 03/01 Q1026 WHT
Pressure 30.30 in
Visibility 3.1 miles
Clouds
Windchill 37 °F
Dew Point 36 °F
Humidity 96%
Rainfall 0.00 in
Snow Depth Not available.
8:30 AM 4:43 PM
Waxing Crescent, 14% visible
METAR EBCV 031055Z AUTO 06007KT 5000 NCD 03/01 Q1026 WHT

10-Day Weather Forecast

×

Almanac

Astronomy

Dec. 03, 2016 Rise Set
Actual Time
Civil Twilight
Nautical Twilight
Astronomical Twilight
Moon
Length of Visible Light
Length of Day
Tomorrow will be .
, % of the Moon is Illuminated

Today's Extremes

Country Highs Country Lows

Community

WunderPhotos

Upload Photos

1,955,434 photos uploaded!

WunderBlog® & News

Nearby

Air Quality

  Air Quality AQ Index Pollutant
Not available.

Snow Depth

Station Depth Elevation

Earthquake Activity

City Distance Mag. Time & Date
Minimum magnitude displayed is 2.5.

Coastal Water Temperatures

Place Temperature

Stations

Nearby Weather Stations

Station Location Temp. Windchill Dew Point Humidity Wind Precip. Elev Updated Type